sensor_id;sensor_type;location;lat;lon;timestamp;P1;durP1;ratioP1;P2;durP2;ratioP2
77736;SDS011;66903;59.926;30.404;2024-03-29T00:01:54;5.28;;;1.75;;
77736;SDS011;66903;59.926;30.404;2024-03-29T00:07:05;4.88;;;1.80;;
77736;SDS011;66903;59.926;30.404;2024-03-29T00:12:16;4.80;;;1.73;;
77736;SDS011;66903;59.926;30.404;2024-03-29T00:17:27;4.97;;;1.50;;
77736;SDS011;66903;59.926;30.404;2024-03-29T00:22:38;6.13;;;1.73;;
77736;SDS011;66903;59.926;30.404;2024-03-29T00:27:49;4.80;;;1.85;;
77736;SDS011;66903;59.926;30.404;2024-03-29T00:33:00;5.15;;;1.63;;
77736;SDS011;66903;59.926;30.404;2024-03-29T00:38:11;6.07;;;1.83;;
77736;SDS011;66903;59.926;30.404;2024-03-29T00:43:22;4.82;;;1.80;;
77736;SDS011;66903;59.926;30.404;2024-03-29T00:48:33;5.32;;;1.95;;
77736;SDS011;66903;59.926;30.404;2024-03-29T00:53:44;3.67;;;1.42;;
77736;SDS011;66903;59.926;30.404;2024-03-29T00:58:55;5.05;;;1.50;;
77736;SDS011;66903;59.926;30.404;2024-03-29T01:04:06;5.47;;;2.13;;
77736;SDS011;66903;59.926;30.404;2024-03-29T01:09:17;5.22;;;1.75;;
77736;SDS011;66903;59.926;30.404;2024-03-29T01:14:28;3.88;;;1.67;;
77736;SDS011;66903;59.926;30.404;2024-03-29T01:19:39;6.22;;;1.70;;
77736;SDS011;66903;59.926;30.404;2024-03-29T01:24:50;4.28;;;1.50;;
77736;SDS011;66903;59.926;30.404;2024-03-29T01:30:01;5.03;;;1.80;;
77736;SDS011;66903;59.926;30.404;2024-03-29T01:35:14;4.40;;;1.80;;
77736;SDS011;66903;59.926;30.404;2024-03-29T01:40:25;5.57;;;1.90;;
77736;SDS011;66903;59.926;30.404;2024-03-29T01:45:39;4.53;;;1.60;;
77736;SDS011;66903;59.926;30.404;2024-03-29T01:50:55;5.10;;;1.70;;
77736;SDS011;66903;59.926;30.404;2024-03-29T01:56:08;6.72;;;2.03;;
77736;SDS011;66903;59.926;30.404;2024-03-29T02:01:20;6.90;;;2.00;;
77736;SDS011;66903;59.926;30.404;2024-03-29T02:06:32;7.07;;;1.85;;
77736;SDS011;66903;59.926;30.404;2024-03-29T02:11:43;4.43;;;1.77;;
77736;SDS011;66903;59.926;30.404;2024-03-29T02:16:54;4.75;;;1.83;;
77736;SDS011;66903;59.926;30.404;2024-03-29T02:22:05;9.30;;;2.13;;
77736;SDS011;66903;59.926;30.404;2024-03-29T02:27:18;5.47;;;2.10;;
77736;SDS011;66903;59.926;30.404;2024-03-29T02:32:29;5.15;;;2.10;;
77736;SDS011;66903;59.926;30.404;2024-03-29T02:37:40;5.00;;;2.22;;
77736;SDS011;66903;59.926;30.404;2024-03-29T02:42:51;5.55;;;1.90;;
77736;SDS011;66903;59.926;30.404;2024-03-29T02:48:02;6.35;;;1.80;;
77736;SDS011;66903;59.926;30.404;2024-03-29T02:53:13;6.90;;;1.98;;
77736;SDS011;66903;59.926;30.404;2024-03-29T02:58:24;5.35;;;2.03;;
77736;SDS011;66903;59.926;30.404;2024-03-29T03:03:35;5.15;;;2.35;;
77736;SDS011;66903;59.926;30.404;2024-03-29T03:08:47;6.57;;;1.88;;
77736;SDS011;66903;59.926;30.404;2024-03-29T03:14:17;10.27;;;2.35;;
77736;SDS011;66903;59.926;30.404;2024-03-29T03:19:27;5.88;;;2.03;;
77736;SDS011;66903;59.926;30.404;2024-03-29T03:24:38;6.30;;;2.40;;
77736;SDS011;66903;59.926;30.404;2024-03-29T03:29:49;4.97;;;1.98;;
77736;SDS011;66903;59.926;30.404;2024-03-29T03:35:00;6.43;;;2.33;;
77736;SDS011;66903;59.926;30.404;2024-03-29T03:40:13;5.35;;;2.42;;
77736;SDS011;66903;59.926;30.404;2024-03-29T03:45:24;7.00;;;2.67;;
77736;SDS011;66903;59.926;30.404;2024-03-29T03:50:35;5.80;;;2.30;;
77736;SDS011;66903;59.926;30.404;2024-03-29T03:55:46;5.38;;;2.35;;
77736;SDS011;66903;59.926;30.404;2024-03-29T04:01:03;5.18;;;2.20;;
77736;SDS011;66903;59.926;30.404;2024-03-29T04:06:17;5.55;;;2.47;;
77736;SDS011;66903;59.926;30.404;2024-03-29T04:11:28;5.70;;;2.50;;
77736;SDS011;66903;59.926;30.404;2024-03-29T04:16:39;6.43;;;2.60;;
77736;SDS011;66903;59.926;30.404;2024-03-29T04:21:51;5.50;;;2.13;;
77736;SDS011;66903;59.926;30.404;2024-03-29T04:27:03;6.10;;;2.53;;
77736;SDS011;66903;59.926;30.404;2024-03-29T04:32:14;6.35;;;2.15;;
77736;SDS011;66903;59.926;30.404;2024-03-29T04:37:25;8.25;;;2.28;;
77736;SDS011;66903;59.926;30.404;2024-03-29T04:42:36;11.93;;;2.35;;
77736;SDS011;66903;59.926;30.404;2024-03-29T04:47:47;5.40;;;2.25;;
77736;SDS011;66903;59.926;30.404;2024-03-29T04:52:58;6.05;;;2.30;;
77736;SDS011;66903;59.926;30.404;2024-03-29T04:58:09;5.35;;;2.17;;
77736;SDS011;66903;59.926;30.404;2024-03-29T05:03:20;5.68;;;2.65;;
77736;SDS011;66903;59.926;30.404;2024-03-29T05:08:32;7.72;;;2.58;;
77736;SDS011;66903;59.926;30.404;2024-03-29T05:13:43;5.95;;;2.50;;
77736;SDS011;66903;59.926;30.404;2024-03-29T05:18:54;6.15;;;2.53;;
77736;SDS011;66903;59.926;30.404;2024-03-29T05:24:05;7.75;;;2.35;;
77736;SDS011;66903;59.926;30.404;2024-03-29T05:29:16;7.30;;;2.78;;
77736;SDS011;66903;59.926;30.404;2024-03-29T05:34:28;7.75;;;2.80;;
77736;SDS011;66903;59.926;30.404;2024-03-29T05:39:39;8.73;;;3.00;;
77736;SDS011;66903;59.926;30.404;2024-03-29T05:44:50;7.72;;;3.38;;
77736;SDS011;66903;59.926;30.404;2024-03-29T05:50:01;8.07;;;2.50;;
77736;SDS011;66903;59.926;30.404;2024-03-29T05:55:14;7.10;;;2.97;;
77736;SDS011;66903;59.926;30.404;2024-03-29T06:00:25;11.52;;;3.40;;
77736;SDS011;66903;59.926;30.404;2024-03-29T06:05:38;6.13;;;2.78;;
77736;SDS011;66903;59.926;30.404;2024-03-29T06:10:50;8.00;;;3.25;;
77736;SDS011;66903;59.926;30.404;2024-03-29T06:16:02;6.25;;;2.80;;
77736;SDS011;66903;59.926;30.404;2024-03-29T06:21:32;8.77;;;3.20;;
77736;SDS011;66903;59.926;30.404;2024-03-29T06:26:49;9.25;;;3.30;;
77736;SDS011;66903;59.926;30.404;2024-03-29T06:32:00;8.02;;;3.47;;
77736;SDS011;66903;59.926;30.404;2024-03-29T06:37:11;8.18;;;4.00;;
77736;SDS011;66903;59.926;30.404;2024-03-29T06:42:22;10.60;;;3.33;;
77736;SDS011;66903;59.926;30.404;2024-03-29T06:47:33;9.55;;;3.25;;
77736;SDS011;66903;59.926;30.404;2024-03-29T06:52:44;7.65;;;3.60;;
77736;SDS011;66903;59.926;30.404;2024-03-29T06:57:55;8.00;;;3.90;;
77736;SDS011;66903;59.926;30.404;2024-03-29T07:03:06;9.32;;;4.28;;
77736;SDS011;66903;59.926;30.404;2024-03-29T07:08:17;8.10;;;3.10;;
77736;SDS011;66903;59.926;30.404;2024-03-29T07:13:29;9.13;;;3.30;;
77736;SDS011;66903;59.926;30.404;2024-03-29T07:18:43;7.97;;;3.28;;
77736;SDS011;66903;59.926;30.404;2024-03-29T07:23:54;8.60;;;3.83;;
77736;SDS011;66903;59.926;30.404;2024-03-29T07:29:06;9.48;;;4.13;;
77736;SDS011;66903;59.926;30.404;2024-03-29T07:34:17;9.10;;;3.88;;
77736;SDS011;66903;59.926;30.404;2024-03-29T07:39:29;9.70;;;3.92;;
77736;SDS011;66903;59.926;30.404;2024-03-29T07:44:40;7.70;;;3.95;;
77736;SDS011;66903;59.926;30.404;2024-03-29T07:49:51;8.07;;;3.65;;
77736;SDS011;66903;59.926;30.404;2024-03-29T07:55:02;10.73;;;3.90;;
77736;SDS011;66903;59.926;30.404;2024-03-29T08:00:14;7.60;;;3.92;;
77736;SDS011;66903;59.926;30.404;2024-03-29T08:05:26;10.63;;;4.03;;
77736;SDS011;66903;59.926;30.404;2024-03-29T08:10:38;9.45;;;4.38;;
77736;SDS011;66903;59.926;30.404;2024-03-29T08:15:48;13.27;;;4.63;;
77736;SDS011;66903;59.926;30.404;2024-03-29T08:21:00;6.85;;;2.70;;
77736;SDS011;66903;59.926;30.404;2024-03-29T08:26:11;10.75;;;4.45;;
77736;SDS011;66903;59.926;30.404;2024-03-29T08:31:23;10.23;;;4.13;;
77736;SDS011;66903;59.926;30.404;2024-03-29T08:36:34;9.82;;;4.10;;
77736;SDS011;66903;59.926;30.404;2024-03-29T08:41:45;11.60;;;4.63;;
77736;SDS011;66903;59.926;30.404;2024-03-29T08:46:56;9.25;;;4.25;;
77736;SDS011;66903;59.926;30.404;2024-03-29T08:52:09;8.07;;;4.35;;
77736;SDS011;66903;59.926;30.404;2024-03-29T08:57:20;7.72;;;3.85;;
77736;SDS011;66903;59.926;30.404;2024-03-29T09:02:30;7.72;;;3.72;;
77736;SDS011;66903;59.926;30.404;2024-03-29T09:07:42;9.43;;;3.88;;
77736;SDS011;66903;59.926;30.404;2024-03-29T09:12:53;12.50;;;4.32;;
77736;SDS011;66903;59.926;30.404;2024-03-29T09:18:04;10.05;;;4.60;;
77736;SDS011;66903;59.926;30.404;2024-03-29T09:23:27;9.90;;;3.97;;
77736;SDS011;66903;59.926;30.404;2024-03-29T09:28:39;13.82;;;5.53;;
77736;SDS011;66903;59.926;30.404;2024-03-29T09:33:50;9.13;;;4.40;;
77736;SDS011;66903;59.926;30.404;2024-03-29T09:39:08;12.18;;;4.45;;
77736;SDS011;66903;59.926;30.404;2024-03-29T09:44:19;9.20;;;4.03;;
77736;SDS011;66903;59.926;30.404;2024-03-29T09:54:44;8.18;;;3.67;;
77736;SDS011;66903;59.926;30.404;2024-03-29T09:59:55;10.30;;;4.40;;
77736;SDS011;66903;59.926;30.404;2024-03-29T10:05:08;8.52;;;4.03;;
77736;SDS011;66903;59.926;30.404;2024-03-29T10:10:21;10.23;;;4.57;;
77736;SDS011;66903;59.926;30.404;2024-03-29T10:15:32;12.90;;;4.38;;
77736;SDS011;66903;59.926;30.404;2024-03-29T10:20:57;11.82;;;4.38;;
77736;SDS011;66903;59.926;30.404;2024-03-29T10:26:18;9.38;;;4.50;;
77736;SDS011;66903;59.926;30.404;2024-03-29T10:31:33;10.98;;;4.43;;
77736;SDS011;66903;59.926;30.404;2024-03-29T10:36:48;11.73;;;5.03;;
77736;SDS011;66903;59.926;30.404;2024-03-29T10:42:01;12.73;;;4.78;;
77736;SDS011;66903;59.926;30.404;2024-03-29T10:47:18;9.50;;;4.38;;
77736;SDS011;66903;59.926;30.404;2024-03-29T10:52:31;9.13;;;4.03;;
77736;SDS011;66903;59.926;30.404;2024-03-29T10:57:42;9.40;;;4.30;;
77736;SDS011;66903;59.926;30.404;2024-03-29T11:08:21;8.98;;;4.57;;
77736;SDS011;66903;59.926;30.404;2024-03-29T11:13:40;8.32;;;4.43;;
77736;SDS011;66903;59.926;30.404;2024-03-29T11:18:58;11.55;;;3.83;;
77736;SDS011;66903;59.926;30.404;2024-03-29T11:24:10;11.07;;;4.30;;
77736;SDS011;66903;59.926;30.404;2024-03-29T11:29:22;10.73;;;4.63;;
77736;SDS011;66903;59.926;30.404;2024-03-29T11:34:34;9.88;;;3.92;;
77736;SDS011;66903;59.926;30.404;2024-03-29T11:39:48;8.65;;;4.03;;
77736;SDS011;66903;59.926;30.404;2024-03-29T11:44:59;9.48;;;4.22;;
77736;SDS011;66903;59.926;30.404;2024-03-29T11:50:10;8.05;;;3.90;;
77736;SDS011;66903;59.926;30.404;2024-03-29T11:55:23;8.20;;;3.88;;
77736;SDS011;66903;59.926;30.404;2024-03-29T12:00:38;8.27;;;4.32;;
77736;SDS011;66903;59.926;30.404;2024-03-29T12:05:51;7.40;;;3.53;;
77736;SDS011;66903;59.926;30.404;2024-03-29T12:11:09;11.32;;;4.63;;
77736;SDS011;66903;59.926;30.404;2024-03-29T12:16:20;10.52;;;4.22;;
77736;SDS011;66903;59.926;30.404;2024-03-29T12:21:31;11.07;;;5.10;;
77736;SDS011;66903;59.926;30.404;2024-03-29T12:26:42;10.50;;;4.78;;
77736;SDS011;66903;59.926;30.404;2024-03-29T12:31:58;13.55;;;4.60;;
77736;SDS011;66903;59.926;30.404;2024-03-29T12:37:10;9.50;;;4.22;;
77736;SDS011;66903;59.926;30.404;2024-03-29T12:42:21;9.68;;;4.43;;
77736;SDS011;66903;59.926;30.404;2024-03-29T12:47:32;9.88;;;4.35;;
77736;SDS011;66903;59.926;30.404;2024-03-29T12:52:44;10.25;;;4.28;;
77736;SDS011;66903;59.926;30.404;2024-03-29T12:57:55;14.40;;;4.82;;
77736;SDS011;66903;59.926;30.404;2024-03-29T13:03:06;10.25;;;4.40;;
77736;SDS011;66903;59.926;30.404;2024-03-29T13:08:18;9.65;;;3.85;;
77736;SDS011;66903;59.926;30.404;2024-03-29T13:13:29;12.15;;;4.93;;
77736;SDS011;66903;59.926;30.404;2024-03-29T13:18:40;9.10;;;4.25;;
77736;SDS011;66903;59.926;30.404;2024-03-29T13:23:51;7.97;;;3.78;;
77736;SDS011;66903;59.926;30.404;2024-03-29T13:29:02;12.25;;;4.63;;
77736;SDS011;66903;59.926;30.404;2024-03-29T13:34:13;9.10;;;4.35;;
77736;SDS011;66903;59.926;30.404;2024-03-29T13:39:24;11.85;;;4.97;;
77736;SDS011;66903;59.926;30.404;2024-03-29T13:44:35;13.70;;;5.43;;
77736;SDS011;66903;59.926;30.404;2024-03-29T13:49:46;12.50;;;4.68;;
77736;SDS011;66903;59.926;30.404;2024-03-29T13:54:57;10.02;;;4.15;;
77736;SDS011;66903;59.926;30.404;2024-03-29T14:00:08;8.23;;;4.05;;
77736;SDS011;66903;59.926;30.404;2024-03-29T14:05:23;10.95;;;5.07;;
77736;SDS011;66903;59.926;30.404;2024-03-29T14:10:35;10.80;;;4.90;;
77736;SDS011;66903;59.926;30.404;2024-03-29T14:15:46;15.35;;;5.38;;
77736;SDS011;66903;59.926;30.404;2024-03-29T14:20:57;12.32;;;4.18;;
77736;SDS011;66903;59.926;30.404;2024-03-29T14:26:08;12.50;;;4.63;;
77736;SDS011;66903;59.926;30.404;2024-03-29T14:31:20;15.50;;;6.82;;
77736;SDS011;66903;59.926;30.404;2024-03-29T14:36:31;9.88;;;4.43;;
77736;SDS011;66903;59.926;30.404;2024-03-29T14:41:43;11.00;;;5.10;;
77736;SDS011;66903;59.926;30.404;2024-03-29T14:46:56;10.65;;;4.93;;
77736;SDS011;66903;59.926;30.404;2024-03-29T14:52:07;10.75;;;5.35;;
77736;SDS011;66903;59.926;30.404;2024-03-29T14:57:18;9.88;;;5.20;;
77736;SDS011;66903;59.926;30.404;2024-03-29T15:07:43;28.25;;;12.98;;
77736;SDS011;66903;59.926;30.404;2024-03-29T15:12:54;10.73;;;4.38;;
77736;SDS011;66903;59.926;30.404;2024-03-29T15:18:05;10.05;;;4.80;;
77736;SDS011;66903;59.926;30.404;2024-03-29T15:23:16;10.73;;;4.80;;
77736;SDS011;66903;59.926;30.404;2024-03-29T15:28:32;11.90;;;5.50;;
77736;SDS011;66903;59.926;30.404;2024-03-29T15:34:02;12.38;;;5.35;;
77736;SDS011;66903;59.926;30.404;2024-03-29T15:39:13;16.00;;;6.68;;
77736;SDS011;66903;59.926;30.404;2024-03-29T15:44:30;17.42;;;7.57;;
77736;SDS011;66903;59.926;30.404;2024-03-29T15:49:41;13.60;;;6.82;;
77736;SDS011;66903;59.926;30.404;2024-03-29T15:54:52;11.48;;;5.85;;
77736;SDS011;66903;59.926;30.404;2024-03-29T16:00:05;12.98;;;6.05;;
77736;SDS011;66903;59.926;30.404;2024-03-29T16:05:16;13.30;;;6.13;;
77736;SDS011;66903;59.926;30.404;2024-03-29T16:10:27;12.80;;;6.57;;
77736;SDS011;66903;59.926;30.404;2024-03-29T16:15:38;14.07;;;6.72;;
77736;SDS011;66903;59.926;30.404;2024-03-29T16:20:49;11.90;;;4.88;;
77736;SDS011;66903;59.926;30.404;2024-03-29T16:26:00;13.27;;;5.03;;
77736;SDS011;66903;59.926;30.404;2024-03-29T16:31:11;10.55;;;4.25;;
77736;SDS011;66903;59.926;30.404;2024-03-29T16:36:22;12.52;;;5.63;;
77736;SDS011;66903;59.926;30.404;2024-03-29T16:41:33;10.95;;;4.57;;
77736;SDS011;66903;59.926;30.404;2024-03-29T16:46:44;9.82;;;4.80;;
77736;SDS011;66903;59.926;30.404;2024-03-29T16:51:55;10.50;;;5.38;;
77736;SDS011;66903;59.926;30.404;2024-03-29T16:57:06;10.27;;;4.93;;
77736;SDS011;66903;59.926;30.404;2024-03-29T17:02:17;11.23;;;5.35;;
77736;SDS011;66903;59.926;30.404;2024-03-29T17:07:28;14.32;;;5.35;;
77736;SDS011;66903;59.926;30.404;2024-03-29T17:12:39;12.02;;;5.22;;
77736;SDS011;66903;59.926;30.404;2024-03-29T17:17:51;13.52;;;5.32;;
77736;SDS011;66903;59.926;30.404;2024-03-29T17:23:02;14.23;;;4.82;;
77736;SDS011;66903;59.926;30.404;2024-03-29T17:28:13;11.77;;;5.07;;
77736;SDS011;66903;59.926;30.404;2024-03-29T17:33:24;9.40;;;4.45;;
77736;SDS011;66903;59.926;30.404;2024-03-29T17:38:35;12.35;;;5.63;;
77736;SDS011;66903;59.926;30.404;2024-03-29T17:43:46;12.57;;;5.47;;
77736;SDS011;66903;59.926;30.404;2024-03-29T17:48:57;9.80;;;4.40;;
77736;SDS011;66903;59.926;30.404;2024-03-29T17:54:08;11.77;;;4.88;;
77736;SDS011;66903;59.926;30.404;2024-03-29T17:59:19;7.45;;;3.75;;
77736;SDS011;66903;59.926;30.404;2024-03-29T18:04:30;9.40;;;3.83;;
77736;SDS011;66903;59.926;30.404;2024-03-29T18:09:41;11.32;;;4.15;;
77736;SDS011;66903;59.926;30.404;2024-03-29T18:14:53;11.93;;;5.10;;
77736;SDS011;66903;59.926;30.404;2024-03-29T18:20:04;11.63;;;5.07;;
77736;SDS011;66903;59.926;30.404;2024-03-29T18:25:16;12.02;;;5.45;;
77736;SDS011;66903;59.926;30.404;2024-03-29T18:30:27;10.32;;;4.95;;
77736;SDS011;66903;59.926;30.404;2024-03-29T18:35:39;16.13;;;6.78;;
77736;SDS011;66903;59.926;30.404;2024-03-29T18:40:51;13.48;;;5.90;;
77736;SDS011;66903;59.926;30.404;2024-03-29T18:46:05;12.45;;;5.63;;
77736;SDS011;66903;59.926;30.404;2024-03-29T18:51:17;15.60;;;5.65;;
77736;SDS011;66903;59.926;30.404;2024-03-29T18:56:28;14.25;;;6.05;;
77736;SDS011;66903;59.926;30.404;2024-03-29T19:01:42;13.27;;;5.30;;
77736;SDS011;66903;59.926;30.404;2024-03-29T19:06:53;14.65;;;6.32;;
77736;SDS011;66903;59.926;30.404;2024-03-29T19:12:04;13.73;;;6.20;;
77736;SDS011;66903;59.926;30.404;2024-03-29T19:17:15;15.57;;;5.25;;
77736;SDS011;66903;59.926;30.404;2024-03-29T19:22:28;12.88;;;5.30;;
77736;SDS011;66903;59.926;30.404;2024-03-29T19:27:39;12.27;;;5.40;;
77736;SDS011;66903;59.926;30.404;2024-03-29T19:32:56;8.75;;;3.70;;
77736;SDS011;66903;59.926;30.404;2024-03-29T19:38:08;9.90;;;4.75;;
77736;SDS011;66903;59.926;30.404;2024-03-29T19:43:19;11.63;;;5.03;;
77736;SDS011;66903;59.926;30.404;2024-03-29T19:48:30;7.50;;;2.10;;
77736;SDS011;66903;59.926;30.404;2024-03-29T19:53:41;9.43;;;3.67;;
77736;SDS011;66903;59.926;30.404;2024-03-29T19:58:52;3.30;;;1.80;;
77736;SDS011;66903;59.926;30.404;2024-03-29T20:04:04;4.50;;;2.10;;
77736;SDS011;66903;59.926;30.404;2024-03-29T20:09:16;5.18;;;2.58;;
77736;SDS011;66903;59.926;30.404;2024-03-29T20:14:26;5.03;;;2.25;;
77736;SDS011;66903;59.926;30.404;2024-03-29T20:19:40;5.38;;;2.33;;
77736;SDS011;66903;59.926;30.404;2024-03-29T20:24:51;9.18;;;2.05;;
77736;SDS011;66903;59.926;30.404;2024-03-29T20:30:02;44.30;;;13.43;;
77736;SDS011;66903;59.926;30.404;2024-03-29T20:35:15;5.53;;;2.35;;
77736;SDS011;66903;59.926;30.404;2024-03-29T20:40:26;5.00;;;1.83;;
77736;SDS011;66903;59.926;30.404;2024-03-29T20:45:37;20.40;;;6.30;;
77736;SDS011;66903;59.926;30.404;2024-03-29T20:50:56;5.90;;;1.95;;
77736;SDS011;66903;59.926;30.404;2024-03-29T20:56:08;5.50;;;2.30;;
77736;SDS011;66903;59.926;30.404;2024-03-29T21:01:19;5.68;;;2.38;;
77736;SDS011;66903;59.926;30.404;2024-03-29T21:06:48;6.13;;;2.47;;
77736;SDS011;66903;59.926;30.404;2024-03-29T21:11:59;3.83;;;1.75;;
77736;SDS011;66903;59.926;30.404;2024-03-29T21:17:10;7.35;;;2.85;;
77736;SDS011;66903;59.926;30.404;2024-03-29T21:22:21;7.28;;;2.92;;
77736;SDS011;66903;59.926;30.404;2024-03-29T21:27:32;6.68;;;2.28;;
77736;SDS011;66903;59.926;30.404;2024-03-29T21:32:44;4.82;;;2.00;;
77736;SDS011;66903;59.926;30.404;2024-03-29T21:37:55;7.55;;;2.00;;
77736;SDS011;66903;59.926;30.404;2024-03-29T21:43:06;6.18;;;2.38;;
77736;SDS011;66903;59.926;30.404;2024-03-29T21:48:20;6.13;;;2.03;;
77736;SDS011;66903;59.926;30.404;2024-03-29T21:53:30;4.40;;;1.83;;
77736;SDS011;66903;59.926;30.404;2024-03-29T21:58:41;5.18;;;1.95;;
77736;SDS011;66903;59.926;30.404;2024-03-29T22:03:52;8.23;;;3.65;;
77736;SDS011;66903;59.926;30.404;2024-03-29T22:09:03;7.97;;;3.25;;
77736;SDS011;66903;59.926;30.404;2024-03-29T22:14:16;5.72;;;2.70;;
77736;SDS011;66903;59.926;30.404;2024-03-29T22:19:27;7.07;;;3.10;;
77736;SDS011;66903;59.926;30.404;2024-03-29T22:24:38;6.93;;;2.55;;
77736;SDS011;66903;59.926;30.404;2024-03-29T22:29:49;10.27;;;3.15;;
77736;SDS011;66903;59.926;30.404;2024-03-29T22:35:00;7.95;;;2.40;;
77736;SDS011;66903;59.926;30.404;2024-03-29T22:40:10;10.10;;;2.40;;
77736;SDS011;66903;59.926;30.404;2024-03-29T22:45:21;4.03;;;1.10;;
77736;SDS011;66903;59.926;30.404;2024-03-29T22:50:32;4.20;;;1.30;;
77736;SDS011;66903;59.926;30.404;2024-03-29T22:55:43;3.53;;;1.30;;
77736;SDS011;66903;59.926;30.404;2024-03-29T23:00:56;2.85;;;1.00;;
77736;SDS011;66903;59.926;30.404;2024-03-29T23:06:07;2.72;;;0.95;;
77736;SDS011;66903;59.926;30.404;2024-03-29T23:11:18;1.95;;;0.80;;
77736;SDS011;66903;59.926;30.404;2024-03-29T23:16:29;2.47;;;1.00;;
77736;SDS011;66903;59.926;30.404;2024-03-29T23:21:42;0.88;;;0.38;;
77736;SDS011;66903;59.926;30.404;2024-03-29T23:26:53;3.60;;;1.10;;
77736;SDS011;66903;59.926;30.404;2024-03-29T23:32:04;3.58;;;1.30;;
77736;SDS011;66903;59.926;30.404;2024-03-29T23:37:15;3.25;;;1.15;;
77736;SDS011;66903;59.926;30.404;2024-03-29T23:42:26;5.03;;;1.30;;
77736;SDS011;66903;59.926;30.404;2024-03-29T23:47:37;3.35;;;1.42;;
77736;SDS011;66903;59.926;30.404;2024-03-29T23:52:48;4.30;;;1.38;;
77736;SDS011;66903;59.926;30.404;2024-03-29T23:57:59;2.65;;;1.10;;
